Terminal Aerodrome Forecast
Issued by NWS

Home | Current Version | Previous Version | Text Only | Print | Product List | Glossary On
Versions: 1 2 3 4 5 6 7 8 9 10 11 12 13 14 15 16 17 18 19 20 21
000
FTAK31 PAFA 310534
TAFAQT
TAF
PAQT 310534Z 3106/0106 04008KT P6SM SKC
     FM311000 03008KT P6SM OVC006
     FM311200 03008KT 1SM BR OVC002
     FM311600 03008KT 4SM BR OVC003
     FM311800 03008KT P6SM OVC006
     FM312100 03008KT P6SM BKN010=

USA.gov is the U.S. government's official web portal to all federal, state and local government web resources and services.